sim
Sign-in with your pilot id or email,
or register
Callsign
Passwort

Schedule Details

Flight Number: DLH680
Departure: Munich Airport (EDDM) at 21:10
Arrival: Tel Aviv Ben Gurion International Airport (LLBG) at 00:50
Route: Lufthansa Passenger Schedule. Enter filed route here before submitting Pirep.

Weather Information
Getting current METAR information for EDDM 260850Z 26018KT 9999 -DZRA SCT020 BKN030 08/04 Q1000 TEMPO 26020G30KT
Getting current METAR information for LLBG 260850Z 32008KT 270V360 9999 FEW040 30/18 Q1011 NOSIG

Schedule Frequency

Route Map